Alba, Michigan
Current Conditions -  °F | °C
As of 9:56 AM on Friday 31 Oct 2014 (Local Time) from KACB Reporting Station
Light Snow Light Snow  
Wind Chill: 25°   Ceiling: 1300
Heat Index: 34°   Visibility: 4mi
Dew Point: 31°   Wind: 13mph
Humidity: 89%   Direction: 10°N
Pressure: 30.1"   Gusts: 26mph
Location:  44.97°N, 84.97°W
Report Text: KACB 311356Z AUTO 01011G23KT 4SM -SN OVC013 01/M01 A3010 RMK AO2 T00101007
Loading
Personal Weather Stations






























Interactive Weather Map
Tropical Storm Tracking
New forecast layout! Learn more

10-Day Weather Forecast

Advertisements
Track Severe Weather on mobile